createdAt,value
2018-04-17T00:00:22.405Z,11.79
2018-04-17T00:03:25.726Z,11.81
2018-04-17T00:06:29.835Z,11.72
2018-04-17T00:09:33.148Z,11.79
2018-04-17T00:12:37.227Z,11.79
2018-04-17T00:15:40.571Z,11.85
2018-04-17T00:18:45.373Z,11.84
2018-04-17T00:21:48.700Z,11.86
2018-04-17T00:24:52.802Z,11.69
2018-04-17T00:27:56.893Z,11.72
2018-04-17T00:31:00.646Z,11.77
2018-04-17T00:34:03.975Z,11.76
2018-04-17T00:37:08.092Z,11.67
2018-04-17T00:40:11.396Z,11.62
2018-04-17T00:43:14.752Z,11.55
2018-04-17T00:46:18.829Z,11.46
2018-04-17T00:49:22.146Z,11.42
2018-04-17T00:52:25.477Z,11.54
2018-04-17T00:55:28.798Z,11.59
2018-04-17T00:58:32.227Z,11.65
2018-04-17T01:01:35.975Z,11.62
2018-04-17T01:04:40.062Z,11.55
2018-04-17T01:07:43.384Z,11.53
2018-04-17T01:10:47.466Z,11.50
2018-04-17T01:13:50.916Z,11.44
2018-04-17T01:16:55.022Z,11.37
2018-04-17T01:19:59.111Z,11.34
2018-04-17T01:23:03.165Z,11.32
2018-04-17T01:26:06.538Z,11.43
2018-04-17T01:29:09.840Z,11.47
2018-04-17T01:32:13.150Z,11.50
2018-04-17T01:35:17.236Z,11.53
2018-04-17T01:38:20.575Z,11.60
2018-04-17T01:41:24.641Z,11.52
2018-04-17T01:44:28.002Z,11.51
2018-04-17T01:47:31.361Z,11.43
2018-04-17T01:50:34.668Z,11.45
2018-04-17T01:53:39.698Z,11.34
2018-04-17T01:56:43.035Z,11.42
2018-04-17T01:59:46.332Z,11.45
2018-04-17T02:02:49.655Z,11.36
2018-04-17T02:05:52.971Z,11.38
2018-04-17T02:08:56.358Z,11.42
2018-04-17T02:11:59.676Z,11.37
2018-04-17T02:15:02.994Z,11.37
2018-04-17T02:18:06.310Z,11.36
2018-04-17T02:21:09.645Z,11.25
2018-04-17T02:24:12.989Z,11.21
2018-04-17T02:27:17.090Z,11.13
2018-04-17T02:30:20.406Z,11.09
2018-04-17T02:33:23.729Z,11.10
2018-04-17T02:36:27.171Z,11.02
2018-04-17T02:39:30.485Z,11.00
2018-04-17T02:42:33.803Z,10.94
2018-04-17T02:45:37.155Z,10.96
2018-04-17T02:48:41.069Z,10.95
2018-04-17T02:51:44.392Z,10.94
2018-04-17T02:54:47.736Z,10.92
2018-04-17T02:57:51.067Z,10.93
2018-04-17T03:00:54.381Z,10.88
2018-04-17T03:03:57.709Z,10.67
2018-04-17T03:07:01.806Z,10.59
2018-04-17T03:10:05.180Z,10.52
2018-04-17T03:13:08.515Z,10.47
2018-04-17T03:16:11.831Z,10.36
2018-04-17T03:19:15.909Z,10.32
2018-04-17T03:22:19.209Z,10.29
2018-04-17T03:25:22.522Z,10.20
2018-04-17T03:28:25.849Z,10.20
2018-04-17T03:31:29.919Z,10.14
2018-04-17T03:34:33.238Z,10.13
2018-04-17T03:37:36.596Z,10.08
2018-04-17T03:40:39.925Z,10.10
2018-04-17T03:43:43.244Z,10.06
2018-04-17T03:46:46.544Z,10.01
2018-04-17T03:49:50.635Z,9.98
2018-04-17T03:52:54.522Z,9.96
2018-04-17T03:55:57.855Z,9.92
2018-04-17T03:59:01.161Z,9.90
2018-04-17T04:02:04.523Z,9.87
2018-04-17T04:05:07.894Z,9.83
2018-04-17T04:08:11.366Z,9.80
2018-04-17T04:11:15.029Z,9.85
2018-04-17T04:14:18.346Z,9.85
2018-04-17T04:17:39.412Z,9.72
2018-04-17T04:21:01.341Z,9.72
2018-04-17T04:24:23.300Z,9.80
2018-04-17T04:27:26.627Z,9.66
2018-04-17T04:30:29.926Z,9.61
2018-04-17T04:33:34.081Z,9.50
2018-04-17T04:36:37.414Z,9.68
2018-04-17T04:39:41.758Z,9.81
2018-04-17T04:42:45.293Z,9.86
2018-04-17T04:45:48.622Z,9.90
2018-04-17T04:56:02.539Z,9.96
2018-04-17T04:59:05.873Z,10.02
2018-04-17T05:02:09.248Z,10.08
2018-04-17T05:05:13.331Z,9.86
2018-04-17T05:08:16.663Z,10.08
2018-04-17T05:11:19.999Z,10.36
2018-04-17T05:14:23.614Z,10.59
2018-04-17T05:17:26.959Z,10.73
2018-04-17T05:20:30.382Z,10.93
2018-04-17T05:23:33.742Z,10.85
2018-04-17T05:26:37.084Z,10.90
2018-04-17T05:29:40.459Z,11.13
2018-04-17T05:32:45.855Z,11.37
2018-04-17T05:35:50.038Z,11.75
2018-04-17T05:38:53.402Z,11.84
2018-04-17T05:41:56.750Z,12.28
2018-04-17T05:45:00.058Z,12.60
2018-04-17T05:48:04.212Z,12.71
2018-04-17T05:51:07.540Z,12.94
2018-04-17T05:54:10.806Z,12.80
2018-04-17T05:57:14.066Z,12.96
2018-04-17T06:00:17.331Z,13.44
2018-04-17T06:03:20.675Z,13.90
2018-04-17T06:06:23.954Z,14.58
2018-04-17T06:09:27.228Z,15.02
2018-04-17T06:12:30.503Z,15.59
2018-04-17T06:15:33.807Z,15.43
2018-04-17T06:18:37.143Z,15.03
2018-04-17T06:21:40.454Z,15.49
2018-04-17T06:24:43.809Z,15.79
2018-04-17T06:27:47.219Z,15.85
2018-04-17T06:30:50.567Z,16.86
2018-04-17T06:33:54.911Z,16.38
2018-04-17T06:36:58.199Z,16.03
2018-04-17T06:40:01.463Z,16.63
2018-04-17T06:43:05.577Z,17.07
2018-04-17T06:46:08.843Z,17.35
2018-04-17T06:49:12.151Z,16.62
2018-04-17T06:52:15.594Z,16.50
2018-04-17T06:55:18.898Z,15.08
2018-04-17T06:58:22.154Z,14.60
2018-04-17T07:01:25.576Z,14.93
2018-04-17T07:04:28.864Z,14.73
2018-04-17T07:07:32.166Z,14.36
2018-04-17T07:10:35.483Z,14.20
2018-04-17T07:13:39.514Z,15.43
2018-04-17T07:16:42.905Z,15.87
2018-04-17T07:19:46.170Z,15.59
2018-04-17T07:22:50.583Z,15.54
2018-04-17T07:25:53.843Z,15.85
2018-04-17T07:28:57.138Z,16.33
2018-04-17T07:32:00.436Z,16.65
2018-04-17T07:35:03.714Z,15.51
2018-04-17T07:38:07.776Z,15.47
2018-04-17T07:41:11.045Z,15.44
2018-04-17T07:44:14.323Z,15.73
2018-04-17T07:47:31.106Z,15.52
2018-04-17T07:50:34.390Z,16.07
2018-04-17T07:53:37.689Z,15.47
2018-04-17T07:56:40.951Z,15.50
2018-04-17T07:59:44.279Z,15.37
2018-04-17T08:02:47.528Z,15.44
2018-04-17T08:05:51.235Z,15.34
2018-04-17T08:08:55.270Z,15.40
2018-04-17T08:11:58.543Z,16.01
2018-04-17T08:15:02.611Z,15.79
2018-04-17T08:18:05.970Z,15.60
2018-04-17T08:21:09.239Z,15.71
2018-04-17T08:24:12.498Z,16.31
2018-04-17T08:27:15.862Z,16.74
2018-04-17T08:30:20.391Z,16.28
2018-04-17T08:33:24.415Z,16.85
2018-04-17T08:36:27.748Z,17.72
2018-04-17T08:39:31.270Z,18.09
2018-04-17T08:42:34.532Z,18.33
2018-04-17T08:45:37.903Z,18.23
2018-04-17T08:48:41.295Z,18.80
2018-04-17T08:51:44.643Z,19.17
2018-04-17T08:54:47.942Z,19.26
2018-04-17T08:57:51.210Z,18.82
2018-04-17T09:00:54.499Z,18.67
2018-04-17T09:03:57.788Z,17.96
2018-04-17T09:07:01.831Z,18.29
2018-04-17T09:10:05.100Z,18.48
2018-04-17T09:13:08.414Z,18.34
2018-04-17T09:16:11.752Z,18.52
2018-04-17T09:19:15.835Z,19.21
2018-04-17T09:22:19.146Z,18.78
2018-04-17T09:25:23.185Z,18.54
2018-04-17T09:28:26.444Z,18.17
2018-04-17T09:31:29.717Z,18.84
2018-04-17T09:34:33.085Z,18.76
2018-04-17T09:37:36.296Z,18.94
2018-04-17T09:40:40.327Z,19.14
2018-04-17T09:43:44.401Z,18.83
2018-04-17T09:46:47.696Z,18.40
2018-04-17T09:49:50.975Z,18.26
2018-04-17T09:52:54.303Z,18.68
2018-04-17T09:55:57.605Z,18.88
2018-04-17T09:59:00.868Z,18.80
2018-04-17T10:02:04.136Z,18.70
2018-04-17T10:05:07.446Z,17.73
2018-04-17T10:08:10.704Z,17.21
2018-04-17T10:11:14.994Z,17.12
2018-04-17T10:14:19.008Z,17.55
2018-04-17T10:17:22.341Z,18.36
2018-04-17T10:20:25.619Z,18.00
2018-04-17T10:23:29.639Z,18.11
2018-04-17T10:26:33.847Z,18.75
2018-04-17T10:29:37.873Z,19.34
2018-04-17T10:32:42.125Z,18.26
2018-04-17T10:35:45.414Z,17.78
2018-04-17T10:38:48.685Z,18.42
2018-04-17T10:41:52.706Z,18.84
2018-04-17T10:44:56.005Z,18.95
2018-04-17T10:47:59.295Z,19.03
2018-04-17T10:51:02.895Z,18.77
2018-04-17T10:54:07.633Z,18.85
2018-04-17T10:57:11.658Z,19.08
2018-04-17T11:00:14.934Z,18.92
2018-04-17T11:03:19.009Z,19.07
2018-04-17T11:06:22.236Z,19.05
2018-04-17T11:09:26.267Z,19.30
2018-04-17T11:12:30.314Z,19.20
2018-04-17T11:15:33.720Z,19.63
2018-04-17T11:18:36.982Z,19.53
2018-04-17T11:21:40.270Z,19.43
2018-04-17T11:24:44.291Z,18.92
2018-04-17T11:27:47.718Z,18.45
2018-04-17T11:30:50.977Z,18.71
2018-04-17T11:33:55.302Z,18.79
2018-04-17T11:36:59.345Z,18.53
2018-04-17T11:40:02.602Z,18.48
2018-04-17T11:43:05.954Z,18.68
2018-04-17T11:46:09.237Z,18.51
2018-04-17T11:49:12.543Z,19.00
2018-04-17T11:52:15.831Z,19.29
2018-04-17T11:55:19.127Z,19.39
2018-04-17T11:58:22.609Z,19.52
2018-04-17T12:01:26.654Z,19.64
2018-04-17T12:04:29.917Z,19.40
2018-04-17T12:07:34.090Z,19.58
2018-04-17T12:10:37.570Z,19.58
2018-04-17T12:13:40.825Z,18.74
2018-04-17T12:16:44.094Z,18.76
2018-04-17T12:19:47.347Z,19.01
2018-04-17T12:22:50.705Z,18.72
2018-04-17T12:25:54.010Z,18.46
2018-04-17T12:28:57.297Z,18.53
2018-04-17T12:32:00.587Z,18.99
2018-04-17T12:35:03.834Z,18.95
2018-04-17T12:38:07.521Z,18.89
2018-04-17T12:41:14.041Z,19.04
2018-04-17T12:44:17.358Z,19.37
2018-04-17T12:47:20.768Z,19.23
2018-04-17T12:50:24.170Z,19.25
2018-04-17T12:53:27.462Z,19.43
2018-04-17T12:56:30.754Z,19.36
2018-04-17T12:59:34.106Z,19.59
2018-04-17T13:02:38.171Z,19.41
2018-04-17T13:05:41.436Z,19.79
2018-04-17T13:08:44.828Z,19.76
2018-04-17T13:11:48.229Z,20.08
2018-04-17T13:14:51.553Z,19.56
2018-04-17T13:17:54.838Z,19.48
2018-04-17T13:20:58.114Z,19.49
2018-04-17T13:24:02.158Z,19.93
2018-04-17T13:27:05.506Z,19.95
2018-04-17T13:30:08.766Z,20.09
2018-04-17T13:33:12.887Z,19.92
2018-04-17T13:36:16.155Z,19.44
2018-04-17T13:39:19.422Z,19.55
2018-04-17T13:42:22.766Z,19.72
2018-04-17T13:45:26.014Z,19.57
2018-04-17T13:48:29.285Z,19.51
2018-04-17T13:51:32.575Z,19.67
2018-04-17T13:54:35.863Z,19.72
2018-04-17T13:57:39.200Z,19.62
2018-04-17T14:00:42.603Z,19.68
2018-04-17T14:03:46.624Z,19.70
2018-04-17T14:06:50.836Z,19.77
2018-04-17T14:09:54.188Z,19.50
2018-04-17T14:12:57.448Z,19.37
2018-04-17T14:16:02.198Z,19.28
2018-04-17T14:19:06.176Z,19.49
2018-04-17T14:22:10.296Z,19.54
2018-04-17T14:25:14.378Z,19.89
2018-04-17T14:28:17.637Z,19.86
2018-04-17T14:31:21.662Z,20.06
2018-04-17T14:34:24.949Z,19.95
2018-04-17T14:37:28.241Z,19.82
2018-04-17T14:40:32.367Z,19.93
2018-04-17T14:43:35.769Z,19.73
2018-04-17T14:46:39.059Z,19.72
2018-04-17T14:49:43.135Z,19.55
2018-04-17T14:52:46.370Z,19.46
2018-04-17T14:55:50.563Z,19.46
2018-04-17T14:58:53.863Z,19.43
2018-04-17T15:01:57.585Z,19.45
2018-04-17T15:05:00.867Z,19.52
2018-04-17T15:08:04.417Z,19.67
2018-04-17T15:11:07.774Z,19.74
2018-04-17T15:14:11.061Z,19.78
2018-04-17T15:17:14.320Z,19.91
2018-04-17T15:20:17.676Z,19.98
2018-04-17T15:23:20.959Z,19.96
2018-04-17T15:26:24.214Z,19.92
2018-04-17T15:29:28.724Z,19.95
2018-04-17T15:32:32.108Z,20.24
2018-04-17T15:35:35.523Z,20.17
2018-04-17T15:38:39.605Z,20.35
2018-04-17T15:41:42.893Z,20.15
2018-04-17T15:44:46.159Z,19.94
2018-04-17T15:47:49.468Z,19.79
2018-04-17T15:51:12.245Z,19.75
2018-04-17T15:54:15.507Z,19.41
2018-04-17T15:57:19.561Z,19.49
2018-04-17T16:00:22.838Z,19.24
2018-04-17T16:03:26.214Z,19.32
2018-04-17T16:06:29.459Z,19.33
2018-04-17T16:09:32.770Z,19.17
2018-04-17T16:12:36.045Z,19.05
2018-04-17T16:15:39.314Z,18.89
2018-04-17T16:18:43.268Z,18.98
2018-04-17T16:21:46.538Z,18.87
2018-04-17T16:24:50.706Z,18.95
2018-04-17T16:27:54.030Z,18.97
2018-04-17T16:30:58.110Z,18.92
2018-04-17T16:34:01.696Z,18.90
2018-04-17T16:37:05.101Z,18.97
2018-04-17T16:40:08.471Z,18.88
2018-04-17T16:43:11.759Z,18.75
2018-04-17T16:46:15.882Z,18.67
2018-04-17T16:49:19.203Z,18.67
2018-04-17T16:52:22.510Z,18.61
2018-04-17T16:55:25.820Z,18.52
2018-04-17T16:58:29.153Z,18.49
2018-04-17T17:01:32.750Z,18.32
2018-04-17T17:04:36.142Z,18.29
2018-04-17T17:07:39.445Z,18.17
2018-04-17T17:10:42.869Z,18.07
2018-04-17T17:13:47.162Z,18.02
2018-04-17T17:16:50.496Z,17.96
2018-04-17T17:19:53.828Z,17.87
2018-04-17T17:22:57.295Z,17.81
2018-04-17T17:26:00.627Z,17.72
2018-04-17T17:29:04.146Z,17.59
2018-04-17T17:32:07.516Z,17.48
2018-04-17T17:35:10.901Z,17.43
2018-04-17T17:38:14.287Z,17.34
2018-04-17T17:41:17.616Z,17.23
2018-04-17T17:44:20.927Z,17.08
2018-04-17T17:47:24.220Z,16.98
2018-04-17T17:50:27.756Z,16.84
2018-04-17T17:53:31.611Z,16.74
2018-04-17T17:56:34.945Z,16.61
2018-04-17T17:59:38.261Z,16.50
2018-04-17T18:02:41.560Z,16.41
2018-04-17T18:05:44.848Z,16.29
2018-04-17T18:12:34.260Z,16.07
2018-04-17T18:15:37.546Z,15.97
2018-04-17T18:18:40.859Z,15.87
2018-04-17T18:21:44.166Z,15.75
2018-04-17T18:24:47.465Z,15.64
2018-04-17T18:27:51.847Z,15.50
2018-04-17T18:30:55.878Z,15.37
2018-04-17T18:33:59.179Z,15.27
2018-04-17T18:37:02.480Z,15.13
2018-04-17T18:40:06.556Z,15.02
2018-04-17T18:43:09.780Z,14.91
2018-04-17T18:46:13.824Z,14.78
2018-04-17T18:49:17.106Z,14.62
2018-04-17T18:52:21.140Z,14.53
2018-04-17T18:55:24.406Z,14.44
2018-04-17T18:58:27.711Z,14.37
2018-04-17T19:01:31.729Z,14.30
2018-04-17T19:04:35.025Z,14.21
2018-04-17T19:07:38.330Z,14.12
2018-04-17T19:10:41.614Z,14.04
2018-04-17T19:13:45.424Z,13.94
2018-04-17T19:16:49.446Z,13.85
2018-04-17T19:19:52.739Z,13.76
2018-04-17T19:22:56.027Z,13.69
2018-04-17T19:26:00.060Z,13.58
2018-04-17T19:29:03.876Z,13.47
2018-04-17T19:32:07.153Z,13.42
2018-04-17T19:35:12.010Z,13.31
2018-04-17T19:38:18.655Z,13.27
2018-04-17T19:41:21.973Z,13.21
2018-04-17T19:44:25.996Z,13.04
2018-04-17T19:47:29.351Z,12.98
2018-04-17T19:50:32.718Z,12.88
2018-04-17T19:53:37.155Z,12.79
2018-04-17T19:56:40.549Z,12.72
2018-04-17T19:59:44.049Z,12.68
2018-04-17T20:02:47.431Z,12.60
2018-04-17T20:05:50.750Z,12.54
2018-04-17T20:08:54.051Z,12.47
2018-04-17T20:11:57.375Z,12.41
2018-04-17T20:15:00.642Z,12.36
2018-04-17T20:18:03.900Z,12.25
2018-04-17T20:21:07.181Z,12.20
2018-04-17T20:24:10.458Z,12.14
2018-04-17T20:27:13.711Z,12.08
2018-04-17T20:30:17.746Z,12.04
2018-04-17T20:33:21.012Z,12.00
2018-04-17T20:36:25.041Z,11.96
2018-04-17T20:39:29.073Z,11.92
2018-04-17T20:42:32.416Z,11.85
2018-04-17T20:45:35.740Z,11.67
2018-04-17T20:48:38.990Z,11.49
2018-04-17T20:51:42.250Z,11.52
2018-04-17T20:54:45.525Z,11.42
2018-04-17T20:57:48.786Z,11.37
2018-04-17T21:00:53.087Z,11.31
2018-04-17T21:03:56.388Z,11.27
2018-04-17T21:06:59.657Z,11.22
2018-04-17T21:10:03.692Z,11.27
2018-04-17T21:13:06.985Z,11.16
2018-04-17T21:16:10.266Z,11.11
2018-04-17T21:19:14.318Z,11.03
2018-04-17T21:22:17.596Z,10.98
2018-04-17T21:25:21.273Z,10.93
2018-04-17T21:28:25.368Z,10.87
2018-04-17T21:31:28.801Z,10.82
2018-04-17T21:34:32.073Z,10.76
2018-04-17T21:37:35.580Z,10.77
2018-04-17T21:40:38.835Z,10.68
2018-04-17T21:43:42.275Z,10.73
2018-04-17T21:46:45.546Z,10.59
2018-04-17T21:49:48.787Z,10.61
2018-04-17T21:52:52.814Z,10.64
2018-04-17T21:55:56.847Z,10.66
2018-04-17T21:59:00.112Z,10.61
2018-04-17T22:02:04.165Z,10.49
2018-04-17T22:05:07.427Z,10.46
2018-04-17T22:08:10.676Z,10.41
2018-04-17T22:11:13.937Z,10.39
2018-04-17T22:14:17.991Z,10.37
2018-04-17T22:17:21.242Z,10.31
2018-04-17T22:20:25.289Z,10.26
2018-04-17T22:23:28.573Z,10.27
2018-04-17T22:26:32.773Z,10.21
2018-04-17T22:29:36.809Z,10.17
2018-04-17T22:32:40.111Z,10.08
2018-04-17T22:35:43.371Z,10.06
2018-04-17T22:38:46.637Z,10.07
2018-04-17T22:41:49.901Z,10.04
2018-04-17T22:44:53.153Z,10.08
2018-04-17T22:47:56.418Z,9.93
2018-04-17T22:51:00.429Z,9.97
2018-04-17T22:54:03.862Z,9.90
2018-04-17T22:57:07.923Z,9.86
2018-04-17T23:00:11.174Z,9.92
2018-04-17T23:03:14.430Z,9.82
2018-04-17T23:06:17.693Z,9.73
2018-04-17T23:09:21.717Z,9.65
2018-04-17T23:12:25.743Z,9.67
2018-04-17T23:15:29.002Z,9.59
2018-04-17T23:18:32.252Z,9.59
2018-04-17T23:21:35.500Z,9.48
2018-04-17T23:24:38.774Z,9.48
2018-04-17T23:27:42.037Z,9.39
2018-04-17T23:30:45.278Z,9.32
2018-04-17T23:33:48.546Z,9.27
2018-04-17T23:36:51.793Z,9.22
2018-04-17T23:39:55.818Z,9.14
2018-04-17T23:42:59.840Z,9.10
2018-04-17T23:46:03.994Z,9.09
2018-04-17T23:49:07.235Z,9.06
2018-04-17T23:52:11.281Z,9.06
2018-04-17T23:55:15.384Z,9.00
2018-04-17T23:58:19.410Z,9.00
